createdAt,value
2022-09-12T00:01:35.140Z,16.05
2022-09-12T00:04:05.366Z,16.09
2022-09-12T00:06:36.938Z,16.14
2022-09-12T00:09:11.809Z,15.92
2022-09-12T00:11:43.157Z,16.09
2022-09-12T00:14:15.947Z,15.99
2022-09-12T00:16:45.968Z,15.95
2022-09-12T00:19:15.730Z,15.94
2022-09-12T00:21:45.416Z,15.88
2022-09-12T00:24:17.647Z,15.88
2022-09-12T00:26:47.340Z,15.75
2022-09-12T00:29:19.480Z,15.78
2022-09-12T00:31:49.701Z,15.68
2022-09-12T00:34:19.636Z,15.63
2022-09-12T00:36:49.245Z,15.64
2022-09-12T00:39:21.481Z,15.67
2022-09-12T00:41:51.121Z,15.60
2022-09-12T00:44:45.789Z,15.50
2022-09-12T00:47:21.048Z,15.47
2022-09-12T00:49:55.252Z,15.45
2022-09-12T00:52:30.489Z,15.42
2022-09-12T00:55:08.605Z,15.49
2022-09-12T00:57:43.072Z,15.49
2022-09-12T01:00:17.436Z,15.50
2022-09-12T01:02:51.749Z,15.44
2022-09-12T01:05:23.362Z,15.48
2022-09-12T01:07:54.331Z,15.48
2022-09-12T01:10:27.262Z,15.49
2022-09-12T01:12:56.918Z,15.52
2022-09-12T01:15:26.576Z,15.52
2022-09-12T01:18:07.770Z,15.58
2022-09-12T01:21:08.712Z,15.50
2022-09-12T01:24:00.590Z,15.48
2022-09-12T01:26:51.625Z,15.41
2022-09-12T01:29:44.305Z,15.38
2022-09-12T01:32:24.571Z,15.31
2022-09-12T01:35:02.150Z,15.27
2022-09-12T01:37:35.374Z,15.23
2022-09-12T01:40:15.959Z,15.17
2022-09-12T01:42:52.192Z,15.20
2022-09-12T01:45:28.922Z,15.16
2022-09-12T01:48:08.754Z,14.99
2022-09-12T01:50:43.802Z,15.07
2022-09-12T01:53:19.523Z,14.93
2022-09-12T01:55:52.819Z,15.09
2022-09-12T01:58:26.348Z,15.17
2022-09-12T02:01:02.952Z,15.04
2022-09-12T02:03:44.759Z,15.19
2022-09-12T02:06:21.624Z,15.07
2022-09-12T02:08:55.651Z,15.06
2022-09-12T02:11:25.370Z,15.04
2022-09-12T02:13:59.074Z,15.09
2022-09-12T02:16:34.354Z,15.02
2022-09-12T02:19:13.187Z,15.00
2022-09-12T02:21:48.610Z,15.03
2022-09-12T02:24:21.137Z,15.00
2022-09-12T02:26:55.665Z,15.03
2022-09-12T02:29:25.441Z,15.01
2022-09-12T02:32:00.068Z,15.04
2022-09-12T02:34:43.930Z,14.97
2022-09-12T02:37:26.220Z,15.07
2022-09-12T02:39:57.216Z,15.00
2022-09-12T02:42:27.356Z,15.02
2022-09-12T02:44:59.709Z,14.99
2022-09-12T02:47:33.791Z,14.97
2022-09-12T02:50:08.153Z,14.98
2022-09-12T02:52:38.468Z,14.91
2022-09-12T02:55:11.631Z,14.86
2022-09-12T02:57:41.450Z,14.72
2022-09-12T03:00:12.585Z,14.82
2022-09-12T03:02:56.958Z,14.85
2022-09-12T03:05:34.382Z,14.67
2022-09-12T03:08:32.136Z,14.78
2022-09-12T03:11:34.924Z,14.72
2022-09-12T03:14:21.732Z,14.65
2022-09-12T03:16:59.325Z,14.72
2022-09-12T03:19:41.259Z,14.74
2022-09-12T03:22:22.742Z,14.70
2022-09-12T03:24:56.590Z,14.72
2022-09-12T03:27:32.122Z,14.73
2022-09-12T03:30:03.158Z,14.66
2022-09-12T03:32:49.593Z,14.53
2022-09-12T03:35:23.135Z,14.46
2022-09-12T03:37:55.977Z,14.40
2022-09-12T03:40:25.523Z,14.39
2022-09-12T03:42:55.094Z,14.37
2022-09-12T03:45:24.673Z,14.35
2022-09-12T03:47:54.270Z,14.20
2022-09-12T03:50:23.832Z,14.21
2022-09-12T03:52:56.165Z,14.28
2022-09-12T03:55:26.719Z,14.28
2022-09-12T03:57:56.530Z,14.20
2022-09-12T04:00:27.344Z,14.29
2022-09-12T04:02:58.610Z,14.36
2022-09-12T04:05:28.644Z,14.38
2022-09-12T04:08:00.725Z,14.39
2022-09-12T04:10:30.279Z,14.34
2022-09-12T04:12:59.836Z,14.32
2022-09-12T04:15:29.370Z,14.34
2022-09-12T04:18:02.450Z,14.33
2022-09-12T04:20:34.731Z,14.36
2022-09-12T04:23:06.813Z,14.43
2022-09-12T04:25:36.369Z,14.36
2022-09-12T04:28:05.897Z,14.35
2022-09-12T04:30:36.574Z,14.26
2022-09-12T04:33:08.257Z,14.24
2022-09-12T04:35:38.270Z,14.24
2022-09-12T04:38:10.422Z,14.30
2022-09-12T04:40:40.113Z,14.31
2022-09-12T04:43:14.277Z,14.28
2022-09-12T04:45:44.253Z,14.16
2022-09-12T04:48:13.801Z,14.18
2022-09-12T04:50:43.410Z,14.16
2022-09-12T04:53:15.498Z,14.14
2022-09-12T04:55:45.010Z,14.02
2022-09-12T04:58:14.540Z,14.09
2022-09-12T05:00:44.070Z,14.13
2022-09-12T05:03:13.594Z,14.16
2022-09-12T05:05:43.218Z,14.19
2022-09-12T05:08:15.455Z,14.22
2022-09-12T05:10:45.306Z,14.22
2022-09-12T05:13:15.050Z,14.23
2022-09-12T05:15:44.693Z,14.22
2022-09-12T05:18:14.329Z,14.23
2022-09-12T05:20:44.944Z,14.25
2022-09-12T05:23:17.157Z,14.33
2022-09-12T05:25:52.506Z,14.33
2022-09-12T05:28:22.706Z,14.34
2022-09-12T05:31:02.978Z,14.42
2022-09-12T05:33:33.266Z,14.32
2022-09-12T05:36:03.409Z,14.38
2022-09-12T05:38:37.542Z,14.51
2022-09-12T05:41:08.458Z,14.50
2022-09-12T05:43:38.974Z,14.60
2022-09-12T05:46:10.944Z,14.55
2022-09-12T05:48:41.335Z,14.55
2022-09-12T05:51:13.232Z,14.50
2022-09-12T05:53:45.676Z,14.64
2022-09-12T05:56:17.248Z,14.73
2022-09-12T05:58:49.429Z,14.80
2022-09-12T06:01:21.642Z,14.85
2022-09-12T06:03:53.332Z,14.79
2022-09-12T06:06:25.566Z,14.89
2022-09-12T06:09:00.516Z,14.82
2022-09-12T06:11:33.308Z,14.97
2022-09-12T06:14:03.545Z,14.93
2022-09-12T06:16:34.953Z,15.03
2022-09-12T06:19:06.737Z,15.01
2022-09-12T06:21:38.865Z,15.00
2022-09-12T06:24:11.350Z,15.14
2022-09-12T06:26:41.211Z,15.18
2022-09-12T06:29:11.505Z,15.37
2022-09-12T06:31:43.231Z,15.36
2022-09-12T06:34:14.586Z,15.41
2022-09-12T06:36:46.862Z,15.33
2022-09-12T06:39:20.617Z,15.55
2022-09-12T06:41:51.073Z,15.66
2022-09-12T06:44:23.051Z,15.80
2022-09-12T06:46:53.978Z,15.94
2022-09-12T06:49:23.584Z,15.93
2022-09-12T06:51:53.261Z,16.01
2022-09-12T06:54:26.551Z,16.01
2022-09-12T06:56:56.154Z,15.98
2022-09-12T06:59:25.774Z,16.09
2022-09-12T07:01:56.229Z,16.14
2022-09-12T07:04:26.028Z,16.29
2022-09-12T07:06:55.718Z,16.32
2022-09-12T07:09:29.710Z,16.42
2022-09-12T07:11:59.350Z,16.51
2022-09-12T07:14:29.065Z,16.58
2022-09-12T07:16:58.820Z,16.65
2022-09-12T07:19:29.018Z,16.67
2022-09-12T07:21:58.931Z,16.81
2022-09-12T07:24:31.188Z,16.81
2022-09-12T07:27:00.877Z,16.91
2022-09-12T07:29:37.059Z,16.97
2022-09-12T07:32:07.686Z,17.15
2022-09-12T07:34:37.768Z,17.11
2022-09-12T07:37:07.543Z,17.21
2022-09-12T07:39:40.540Z,17.26
2022-09-12T07:42:12.653Z,17.49
2022-09-12T07:44:42.885Z,17.59
2022-09-12T07:47:12.578Z,17.72
2022-09-12T07:49:42.211Z,17.86
2022-09-12T07:52:11.920Z,17.89
2022-09-12T07:54:44.501Z,18.04
2022-09-12T07:57:15.787Z,18.27
2022-09-12T07:59:53.475Z,18.39
2022-09-12T08:02:23.327Z,18.54
2022-09-12T08:04:53.952Z,18.69
2022-09-12T08:07:24.635Z,18.76
2022-09-12T08:09:57.047Z,18.85
2022-09-12T08:12:26.848Z,18.94
2022-09-12T08:14:56.617Z,19.09
2022-09-12T08:17:26.396Z,19.18
2022-09-12T08:19:56.105Z,19.35
2022-09-12T08:22:26.252Z,19.42
2022-09-12T08:24:58.701Z,19.53
2022-09-12T08:27:28.354Z,19.69
2022-09-12T08:29:58.056Z,19.71
2022-09-12T08:32:27.898Z,19.93
2022-09-12T08:34:57.586Z,20.03
2022-09-12T08:37:28.440Z,20.26
2022-09-12T08:40:00.833Z,20.29
2022-09-12T08:42:51.386Z,20.34
2022-09-12T08:45:25.460Z,20.42
2022-09-12T08:47:55.849Z,20.44
2022-09-12T08:50:25.802Z,20.52
2022-09-12T08:53:03.024Z,20.61
2022-09-12T08:55:38.436Z,20.56
2022-09-12T08:58:17.195Z,20.67
2022-09-12T09:00:58.276Z,20.65
2022-09-12T09:04:02.333Z,20.63
2022-09-12T09:06:47.228Z,20.64
2022-09-12T09:09:23.248Z,20.72
2022-09-12T09:12:09.365Z,20.74
2022-09-12T09:14:53.977Z,20.92
2022-09-12T09:17:28.838Z,20.92
2022-09-12T09:20:05.036Z,20.82
2022-09-12T09:22:42.969Z,20.74
2022-09-12T09:25:23.017Z,20.74
2022-09-12T09:28:02.305Z,20.77
2022-09-12T09:30:33.470Z,20.72
2022-09-12T09:33:06.549Z,20.88
2022-09-12T09:35:46.397Z,20.96
2022-09-12T09:38:26.211Z,20.95
2022-09-12T09:41:09.299Z,21.08
2022-09-12T09:43:41.976Z,21.10
2022-09-12T09:46:11.972Z,21.13
2022-09-12T09:48:46.495Z,21.20
2022-09-12T09:51:19.239Z,21.32
2022-09-12T09:53:53.150Z,21.50
2022-09-12T09:56:33.226Z,21.52
2022-09-12T09:59:14.918Z,21.73
2022-09-12T10:01:51.010Z,21.83
2022-09-12T10:04:22.950Z,21.91
2022-09-12T10:07:01.189Z,22.06
2022-09-12T10:09:33.115Z,21.90
2022-09-12T10:12:22.094Z,22.07
2022-09-12T10:15:01.156Z,22.14
2022-09-12T10:17:34.687Z,22.22
2022-09-12T10:20:20.560Z,22.23
2022-09-12T10:22:52.300Z,22.10
2022-09-12T10:25:23.109Z,22.04
2022-09-12T10:27:57.852Z,22.17
2022-09-12T10:30:30.906Z,22.23
2022-09-12T10:33:08.534Z,22.28
2022-09-12T10:35:48.422Z,22.26
2022-09-12T10:38:25.043Z,22.35
2022-09-12T10:41:03.607Z,22.52
2022-09-12T10:43:38.239Z,22.30
2022-09-12T10:46:27.294Z,22.68
2022-09-12T10:49:24.266Z,22.69
2022-09-12T10:51:54.572Z,22.66
2022-09-12T10:54:27.226Z,22.67
2022-09-12T10:57:25.157Z,22.59
2022-09-12T11:00:10.236Z,22.66
2022-09-12T11:02:53.377Z,22.75
2022-09-12T11:05:40.598Z,22.45
2022-09-12T11:08:20.591Z,22.84
2022-09-12T11:10:58.150Z,22.72
2022-09-12T11:13:40.776Z,22.68
2022-09-12T11:16:24.253Z,22.82
2022-09-12T11:19:24.032Z,23.02
2022-09-12T11:22:07.353Z,23.07
2022-09-12T11:24:58.085Z,23.20
2022-09-12T11:27:40.112Z,23.29
2022-09-12T11:30:14.888Z,23.30
2022-09-12T11:33:08.795Z,22.95
2022-09-12T11:35:53.041Z,22.93
2022-09-12T11:38:48.367Z,23.12
2022-09-12T11:41:23.222Z,23.39
2022-09-12T11:43:58.296Z,23.41
2022-09-12T11:46:36.492Z,23.41
2022-09-12T11:49:16.921Z,23.51
2022-09-12T11:51:56.319Z,23.58
2022-09-12T11:54:31.366Z,23.56
2022-09-12T11:57:08.623Z,23.61
2022-09-12T11:59:46.879Z,23.56
2022-09-12T12:02:24.908Z,23.68
2022-09-12T12:05:20.488Z,23.86
2022-09-12T12:07:56.012Z,23.94
2022-09-12T12:10:36.249Z,23.92
2022-09-12T12:13:13.813Z,23.92
2022-09-12T12:15:50.075Z,23.90
2022-09-12T12:18:22.826Z,24.18
2022-09-12T12:20:54.538Z,24.18
2022-09-12T12:23:37.909Z,24.09
2022-09-12T12:26:08.007Z,24.15
2022-09-12T12:29:05.129Z,24.34
2022-09-12T12:31:34.840Z,24.25
2022-09-12T12:34:25.108Z,24.33
2022-09-12T12:36:54.851Z,24.32
2022-09-12T12:40:06.165Z,24.30
2022-09-12T12:43:04.817Z,24.18
2022-09-12T12:46:05.505Z,24.15
2022-09-12T12:48:49.213Z,24.13
2022-09-12T12:51:29.616Z,24.18
2022-09-12T12:54:00.488Z,24.17
2022-09-12T12:56:36.100Z,24.30
2022-09-12T12:59:20.015Z,24.56
2022-09-12T13:01:55.316Z,24.48
2022-09-12T13:04:29.693Z,24.22
2022-09-12T13:07:07.888Z,24.44
2022-09-12T13:09:46.558Z,24.37
2022-09-12T13:12:23.656Z,24.50
2022-09-12T13:14:58.431Z,24.46
2022-09-12T13:17:33.427Z,24.47
2022-09-12T13:20:29.194Z,24.40
2022-09-12T13:23:00.622Z,24.30
2022-09-12T13:25:33.341Z,24.49
2022-09-12T13:28:07.802Z,24.57
2022-09-12T13:30:43.047Z,24.48
2022-09-12T13:33:21.302Z,24.57
2022-09-12T13:36:09.899Z,24.50
2022-09-12T13:38:49.933Z,24.58
2022-09-12T13:41:47.595Z,24.64
2022-09-12T13:44:21.560Z,24.64
2022-09-12T13:46:54.812Z,24.55
2022-09-12T13:49:35.030Z,24.46
2022-09-12T13:52:08.744Z,24.52
2022-09-12T13:54:41.609Z,24.50
2022-09-12T13:57:31.335Z,24.37
2022-09-12T14:00:07.615Z,24.35
2022-09-12T14:02:43.332Z,24.35
2022-09-12T14:05:20.158Z,24.40
2022-09-12T14:07:57.187Z,24.35
2022-09-12T14:10:31.913Z,24.47
2022-09-12T14:13:03.380Z,24.28
2022-09-12T14:15:35.272Z,24.50
2022-09-12T14:18:10.371Z,24.47
2022-09-12T14:20:42.033Z,24.30
2022-09-12T14:23:22.243Z,24.39
2022-09-12T14:25:55.721Z,24.48
2022-09-12T14:28:27.262Z,24.58
2022-09-12T14:31:05.439Z,24.71
2022-09-12T14:33:51.531Z,24.86
2022-09-12T14:36:26.144Z,24.68
2022-09-12T14:38:58.434Z,24.64
2022-09-12T14:41:32.861Z,24.73
2022-09-12T14:44:05.130Z,24.62
2022-09-12T14:46:37.639Z,24.31
2022-09-12T14:49:18.376Z,24.28
2022-09-12T14:51:57.207Z,24.29
2022-09-12T14:54:39.522Z,24.36
2022-09-12T14:57:10.543Z,24.46
2022-09-12T14:59:42.751Z,24.72
2022-09-12T15:02:29.757Z,24.63
2022-09-12T15:05:21.146Z,24.64
2022-09-12T15:08:04.079Z,24.63
2022-09-12T15:10:36.941Z,24.67
2022-09-12T15:13:24.119Z,24.66
2022-09-12T15:15:55.882Z,24.38
2022-09-12T15:18:27.928Z,24.57
2022-09-12T15:21:05.814Z,24.52
2022-09-12T15:23:40.235Z,24.37
2022-09-12T15:26:13.832Z,24.44
2022-09-12T15:28:43.547Z,24.16
2022-09-12T15:31:18.505Z,24.54
2022-09-12T15:33:48.330Z,24.48
2022-09-12T15:36:22.959Z,24.53
2022-09-12T15:38:53.470Z,24.46
2022-09-12T15:41:24.712Z,24.48
2022-09-12T15:43:54.376Z,24.39
2022-09-12T15:46:24.034Z,24.46
2022-09-12T15:48:53.783Z,24.45
2022-09-12T15:51:26.052Z,24.56
2022-09-12T15:53:55.704Z,24.41
2022-09-12T15:56:25.745Z,24.33
2022-09-12T15:58:59.343Z,24.31
2022-09-12T16:01:30.882Z,24.21
2022-09-12T16:04:01.000Z,24.10
2022-09-12T16:06:37.158Z,24.11
2022-09-12T16:09:07.662Z,24.06
2022-09-12T16:11:37.592Z,23.99
2022-09-12T16:14:07.791Z,23.98
2022-09-12T16:16:37.499Z,23.81
2022-09-12T16:19:07.653Z,23.81
2022-09-12T16:21:40.694Z,23.78
2022-09-12T16:24:10.438Z,23.70
2022-09-12T16:26:40.228Z,23.64
2022-09-12T16:29:10.380Z,23.60
2022-09-12T16:31:40.177Z,23.56
2022-09-12T16:34:11.028Z,23.43
2022-09-12T16:36:45.267Z,23.41
2022-09-12T16:39:14.943Z,23.32
2022-09-12T16:41:44.818Z,23.32
2022-09-12T16:44:14.669Z,23.40
2022-09-12T16:46:44.320Z,23.33
2022-09-12T16:49:14.317Z,23.25
2022-09-12T16:51:47.595Z,23.16
2022-09-12T16:54:18.446Z,23.22
2022-09-12T16:56:50.046Z,23.16
2022-09-12T16:59:19.789Z,23.12
2022-09-12T17:01:49.530Z,23.19
2022-09-12T17:04:23.321Z,23.25
2022-09-12T17:06:57.478Z,23.22
2022-09-12T17:09:28.253Z,23.30
2022-09-12T17:11:58.915Z,23.29
2022-09-12T17:14:28.619Z,23.19
2022-09-12T17:16:59.381Z,23.16
2022-09-12T17:19:30.742Z,23.14
2022-09-12T17:22:03.087Z,23.19
2022-09-12T17:24:33.037Z,23.02
2022-09-12T17:27:02.678Z,23.10
2022-09-12T17:29:32.391Z,22.95
2022-09-12T17:32:02.161Z,22.97
2022-09-12T17:34:32.006Z,22.85
2022-09-12T17:37:04.799Z,22.81
2022-09-12T17:39:34.570Z,22.70
2022-09-12T17:42:04.658Z,22.62
2022-09-12T17:44:35.932Z,22.45
2022-09-12T17:47:08.049Z,22.53
2022-09-12T17:49:39.444Z,22.44
2022-09-12T17:52:11.972Z,22.40
2022-09-12T17:54:41.994Z,22.30
2022-09-12T17:57:11.699Z,22.25
2022-09-12T17:59:41.704Z,22.22
2022-09-12T18:02:15.849Z,22.21
2022-09-12T18:04:48.472Z,22.11
2022-09-12T18:07:22.368Z,22.09
2022-09-12T18:09:53.537Z,22.00
2022-09-12T18:12:23.482Z,21.92
2022-09-12T18:14:53.494Z,21.87
2022-09-12T18:17:23.137Z,21.80
2022-09-12T18:19:54.059Z,21.76
2022-09-12T18:22:27.784Z,21.78
2022-09-12T18:24:57.681Z,21.73
2022-09-12T18:27:27.409Z,21.71
2022-09-12T18:30:19.580Z,21.66
2022-09-12T18:32:48.277Z,21.58
2022-09-12T18:35:18.625Z,21.58
2022-09-12T18:37:51.188Z,21.57
2022-09-12T18:40:21.296Z,21.50
2022-09-12T18:42:51.495Z,21.47
2022-09-12T18:45:21.149Z,21.40
2022-09-12T18:47:50.776Z,21.34
2022-09-12T18:50:21.009Z,21.32
2022-09-12T18:52:57.842Z,21.31
2022-09-12T18:55:29.523Z,21.23
2022-09-12T18:57:59.145Z,21.20
2022-09-12T19:00:30.114Z,21.14
2022-09-12T19:03:00.567Z,21.04
2022-09-12T19:05:31.425Z,21.03
2022-09-12T19:08:04.929Z,20.88
2022-09-12T19:10:34.744Z,20.91
2022-09-12T19:13:04.685Z,20.88
2022-09-12T19:15:34.607Z,20.93
2022-09-12T19:18:04.333Z,20.81
2022-09-12T19:20:39.202Z,21.00
2022-09-12T19:23:12.774Z,20.97
2022-09-12T19:25:42.432Z,20.95
2022-09-12T19:28:12.080Z,20.96
2022-09-12T19:30:49.828Z,20.94
2022-09-12T19:33:20.802Z,20.94
2022-09-12T19:35:51.048Z,20.92
2022-09-12T19:38:23.550Z,20.95
2022-09-12T19:40:59.712Z,20.96
2022-09-12T19:43:30.642Z,20.74
2022-09-12T19:46:00.900Z,20.85
2022-09-12T19:48:31.807Z,20.73
2022-09-12T19:51:02.392Z,20.53
2022-09-12T19:53:34.967Z,20.39
2022-09-12T19:56:06.473Z,20.32
2022-09-12T19:58:41.299Z,20.34
2022-09-12T20:01:12.455Z,20.22
2022-09-12T20:03:43.116Z,20.26
2022-09-12T20:06:14.766Z,20.16
2022-09-12T20:08:47.186Z,20.16
2022-09-12T20:11:19.135Z,20.12
2022-09-12T20:13:49.372Z,20.03
2022-09-12T20:16:23.325Z,19.98
2022-09-12T20:18:59.317Z,19.83
2022-09-12T20:21:34.185Z,19.59
2022-09-12T20:24:08.808Z,19.66
2022-09-12T20:26:38.864Z,19.57
2022-09-12T20:29:09.589Z,19.56
2022-09-12T20:31:41.807Z,19.61
2022-09-12T20:34:17.459Z,19.64
2022-09-12T20:36:47.148Z,19.62
2022-09-12T20:39:21.840Z,19.69
2022-09-12T20:41:52.659Z,19.72
2022-09-12T20:44:22.972Z,19.76
2022-09-12T20:46:52.763Z,19.76
2022-09-12T20:49:23.785Z,19.75
2022-09-12T20:51:53.497Z,19.77
2022-09-12T20:54:25.738Z,19.78
2022-09-12T20:56:55.671Z,19.75
2022-09-12T20:59:26.308Z,19.78
2022-09-12T21:01:56.023Z,19.75
2022-09-12T21:04:26.612Z,19.70
2022-09-12T21:06:56.268Z,19.69
2022-09-12T21:09:28.544Z,19.71
2022-09-12T21:11:58.251Z,19.67
2022-09-12T21:14:27.964Z,19.36
2022-09-12T21:16:57.684Z,19.33
2022-09-12T21:19:27.401Z,19.34
2022-09-12T21:21:57.191Z,19.06
2022-09-12T21:24:30.525Z,19.19
2022-09-12T21:27:04.237Z,18.99
2022-09-12T21:29:34.538Z,19.20
2022-09-12T21:32:06.598Z,19.11
2022-09-12T21:34:41.875Z,19.18
2022-09-12T21:37:11.525Z,19.11
2022-09-12T21:39:43.850Z,19.16
2022-09-12T21:42:13.547Z,18.83
2022-09-12T21:44:43.119Z,18.95
2022-09-12T21:47:12.863Z,19.03
2022-09-12T21:49:43.581Z,19.16
2022-09-12T21:52:16.458Z,19.07
2022-09-12T21:54:49.758Z,18.96
2022-09-12T21:57:19.555Z,18.81
2022-09-12T21:59:52.587Z,19.14
2022-09-12T22:02:23.359Z,18.95
2022-09-12T22:04:53.065Z,18.97
2022-09-12T22:07:25.217Z,19.01
2022-09-12T22:09:58.086Z,18.87
2022-09-12T22:12:29.444Z,18.84
2022-09-12T22:15:22.802Z,18.96
2022-09-12T22:17:54.166Z,18.89
2022-09-12T22:20:23.931Z,18.92
2022-09-12T22:23:06.143Z,18.89
2022-09-12T22:25:39.528Z,18.93
2022-09-12T22:28:09.271Z,18.94
2022-09-12T22:30:39.148Z,18.96
2022-09-12T22:33:08.891Z,19.04
2022-09-12T22:35:39.676Z,18.94
2022-09-12T22:38:09.294Z,18.95
2022-09-12T22:40:41.762Z,18.93
2022-09-12T22:43:11.586Z,18.93
2022-09-12T22:45:43.522Z,18.93
2022-09-12T22:48:13.166Z,18.88
2022-09-12T22:50:42.979Z,18.95
2022-09-12T22:53:12.585Z,18.87
2022-09-12T22:55:46.557Z,18.85
2022-09-12T22:58:16.465Z,18.84
2022-09-12T23:00:50.367Z,18.89
2022-09-12T23:03:20.908Z,18.70
2022-09-12T23:05:51.029Z,18.86
2022-09-12T23:08:20.683Z,18.76
2022-09-12T23:10:52.917Z,18.82
2022-09-12T23:13:22.537Z,18.83
2022-09-12T23:16:00.166Z,18.76
2022-09-12T23:18:30.491Z,18.72
2022-09-12T23:21:01.917Z,18.79
2022-09-12T23:23:31.887Z,18.85
2022-09-12T23:26:13.236Z,18.87
2022-09-12T23:28:43.523Z,18.76
2022-09-12T23:31:13.190Z,18.81
2022-09-12T23:33:43.255Z,18.83
2022-09-12T23:36:14.590Z,18.78
2022-09-12T23:38:46.082Z,18.82
2022-09-12T23:41:19.567Z,18.80
2022-09-12T23:43:49.228Z,18.62
2022-09-12T23:46:20.513Z,18.65
2022-09-12T23:48:50.677Z,18.83
2022-09-12T23:51:21.718Z,18.78
2022-09-12T23:53:51.723Z,18.91
2022-09-12T23:56:24.649Z,18.93
2022-09-12T23:58:54.302Z,18.83
